createdAt,value
2023-01-25T00:01:57.863Z,2.95
2023-01-25T00:04:26.444Z,2.94
2023-01-25T00:06:54.969Z,2.92
2023-01-25T00:09:24.753Z,2.91
2023-01-25T00:11:56.290Z,2.92
2023-01-25T00:14:25.430Z,2.92
2023-01-25T00:16:53.903Z,2.94
2023-01-25T00:19:24.034Z,2.94
2023-01-25T00:21:52.301Z,2.95
2023-01-25T00:24:22.922Z,2.96
2023-01-25T00:26:51.254Z,2.96
2023-01-25T00:29:19.779Z,2.97
2023-01-25T00:32:00.107Z,2.96
2023-01-25T00:34:47.952Z,2.94
2023-01-25T00:37:25.909Z,2.96
2023-01-25T00:39:54.560Z,2.97
2023-01-25T00:42:23.444Z,2.97
2023-01-25T00:44:51.909Z,2.99
2023-01-25T00:47:22.082Z,2.99
2023-01-25T00:49:51.700Z,3.00
2023-01-25T00:52:20.852Z,3.01
2023-01-25T00:54:49.357Z,3.01
2023-01-25T00:57:17.598Z,3.00
2023-01-25T00:59:47.440Z,3.01
2023-01-25T01:02:16.668Z,3.01
2023-01-25T01:04:45.230Z,3.01
2023-01-25T01:07:16.444Z,3.00
2023-01-25T01:09:45.143Z,2.98
2023-01-25T01:12:13.703Z,2.99
2023-01-25T01:14:43.176Z,3.00
2023-01-25T01:17:11.655Z,3.00
2023-01-25T01:19:41.383Z,3.00
2023-01-25T01:22:09.916Z,2.99
2023-01-25T01:24:40.142Z,3.00
2023-01-25T01:27:10.173Z,3.00
2023-01-25T01:29:38.678Z,2.99
2023-01-25T01:32:07.614Z,2.99
2023-01-25T01:34:36.334Z,3.01
2023-01-25T01:37:04.862Z,3.00
2023-01-25T01:39:33.537Z,2.97
2023-01-25T01:42:03.156Z,2.96
2023-01-25T01:44:48.889Z,2.93
2023-01-25T01:47:23.457Z,2.94
2023-01-25T01:50:01.046Z,2.94
2023-01-25T01:52:36.801Z,2.96
2023-01-25T01:55:10.390Z,2.96
2023-01-25T01:57:45.746Z,2.96
2023-01-25T02:00:19.294Z,2.97
2023-01-25T02:02:50.258Z,3.00
2023-01-25T02:05:23.620Z,3.00
2023-01-25T02:07:55.849Z,3.00
2023-01-25T02:10:28.527Z,2.98
2023-01-25T02:13:00.079Z,3.00
2023-01-25T02:15:34.504Z,3.01
2023-01-25T02:18:04.254Z,3.01
2023-01-25T02:20:38.430Z,3.01
2023-01-25T02:23:17.580Z,3.03
2023-01-25T02:25:47.811Z,3.02
2023-01-25T02:28:22.262Z,3.00
2023-01-25T02:30:50.401Z,2.97
2023-01-25T02:33:19.626Z,2.97
2023-01-25T02:35:51.371Z,2.97
2023-01-25T02:38:21.319Z,2.97
2023-01-25T02:40:59.035Z,2.95
2023-01-25T02:43:33.409Z,2.95
2023-01-25T02:46:12.966Z,2.95
2023-01-25T02:48:45.419Z,2.95
2023-01-25T02:51:14.720Z,2.96
2023-01-25T02:53:43.189Z,2.95
2023-01-25T02:56:13.005Z,2.96
2023-01-25T02:58:41.313Z,2.96
2023-01-25T03:01:10.697Z,2.96
2023-01-25T03:03:39.394Z,2.96
2023-01-25T03:06:08.657Z,2.96
2023-01-25T03:08:37.601Z,2.97
2023-01-25T03:11:08.561Z,2.96
2023-01-25T03:13:39.512Z,2.96
2023-01-25T03:16:11.794Z,2.95
2023-01-25T03:18:42.850Z,2.95
2023-01-25T03:21:13.795Z,2.96
2023-01-25T03:23:43.766Z,2.95
2023-01-25T03:26:16.845Z,2.95
2023-01-25T03:29:18.834Z,2.95
2023-01-25T03:31:49.734Z,2.95
2023-01-25T03:34:18.419Z,2.94
2023-01-25T03:36:46.983Z,2.93
2023-01-25T03:39:16.896Z,2.94
2023-01-25T03:41:45.405Z,2.93
2023-01-25T03:44:15.423Z,2.91
2023-01-25T03:46:47.612Z,2.89
2023-01-25T03:49:16.200Z,2.89
2023-01-25T03:51:44.398Z,2.87
2023-01-25T03:54:14.473Z,2.85
2023-01-25T03:56:42.997Z,2.84
2023-01-25T03:59:17.621Z,2.81
2023-01-25T04:01:47.923Z,2.80
2023-01-25T04:04:17.157Z,2.79
2023-01-25T04:06:47.242Z,2.77
2023-01-25T04:09:15.854Z,2.76
2023-01-25T04:11:52.130Z,2.73
2023-01-25T04:14:35.090Z,2.71
2023-01-25T04:17:11.042Z,2.70
2023-01-25T04:20:02.732Z,2.68
2023-01-25T04:22:38.432Z,2.66
2023-01-25T04:25:09.068Z,2.65
2023-01-25T04:27:41.031Z,2.64
2023-01-25T04:30:14.307Z,2.62
2023-01-25T04:32:45.928Z,2.61
2023-01-25T04:35:23.064Z,2.59
2023-01-25T04:37:56.123Z,2.57
2023-01-25T04:40:27.265Z,2.58
2023-01-25T04:42:55.783Z,2.56
2023-01-25T04:45:25.492Z,2.56
2023-01-25T04:48:00.368Z,2.55
2023-01-25T04:50:29.581Z,2.55
2023-01-25T04:52:57.893Z,2.56
2023-01-25T04:55:27.005Z,2.55
2023-01-25T04:57:57.274Z,2.56
2023-01-25T05:00:25.963Z,2.55
2023-01-25T05:02:54.505Z,2.55
2023-01-25T05:05:24.892Z,2.55
2023-01-25T05:07:55.525Z,2.53
2023-01-25T05:10:24.815Z,2.53
2023-01-25T05:13:25.046Z,2.51
2023-01-25T05:16:02.601Z,2.50
2023-01-25T05:18:42.648Z,2.50
2023-01-25T05:21:33.957Z,2.49
2023-01-25T05:24:02.732Z,2.47
2023-01-25T05:26:52.196Z,2.47
2023-01-25T05:29:20.900Z,2.46
2023-01-25T05:31:58.319Z,2.47
2023-01-25T05:34:27.413Z,2.47
2023-01-25T05:36:57.554Z,2.49
2023-01-25T05:39:26.285Z,2.48
2023-01-25T05:41:55.798Z,2.49
2023-01-25T05:44:24.988Z,2.49
2023-01-25T05:46:53.957Z,2.49
2023-01-25T05:49:22.550Z,2.50
2023-01-25T05:51:51.477Z,2.50
2023-01-25T05:54:22.537Z,2.50
2023-01-25T05:57:00.135Z,2.50
2023-01-25T05:59:28.894Z,2.52
2023-01-25T06:01:58.252Z,2.53
2023-01-25T06:04:26.801Z,2.53
2023-01-25T06:06:55.338Z,2.53
2023-01-25T06:09:26.359Z,2.53
2023-01-25T06:11:54.909Z,2.53
2023-01-25T06:14:24.479Z,2.50
2023-01-25T06:16:53.787Z,2.49
2023-01-25T06:19:33.236Z,2.49
2023-01-25T06:22:18.240Z,2.47
2023-01-25T06:24:47.825Z,2.47
2023-01-25T06:27:16.425Z,2.48
2023-01-25T06:29:44.996Z,2.46
2023-01-25T06:32:13.909Z,2.45
2023-01-25T06:34:42.720Z,2.45
2023-01-25T06:37:17.814Z,2.41
2023-01-25T06:39:47.446Z,2.40
2023-01-25T06:42:15.946Z,2.37
2023-01-25T06:44:44.510Z,2.36
2023-01-25T06:47:13.074Z,2.34
2023-01-25T06:49:41.263Z,2.33
2023-01-25T06:52:09.538Z,2.35
2023-01-25T06:54:38.036Z,2.35
2023-01-25T06:57:10.246Z,2.37
2023-01-25T06:59:38.908Z,2.38
2023-01-25T07:02:07.520Z,2.39
2023-01-25T07:04:36.301Z,2.38
2023-01-25T07:07:04.820Z,2.38
2023-01-25T07:09:33.382Z,2.38
2023-01-25T07:12:02.133Z,2.39
2023-01-25T07:14:31.833Z,2.41
2023-01-25T07:17:03.855Z,2.41
2023-01-25T07:19:32.605Z,2.42
2023-01-25T07:22:01.081Z,2.42
2023-01-25T07:24:29.746Z,2.41
2023-01-25T07:26:58.331Z,2.40
2023-01-25T07:29:26.890Z,2.40
2023-01-25T07:31:56.530Z,2.43
2023-01-25T07:34:25.106Z,2.42
2023-01-25T07:36:53.305Z,2.41
2023-01-25T07:39:21.900Z,2.41
2023-01-25T07:41:50.454Z,2.42
2023-01-25T07:44:21.435Z,2.42
2023-01-25T07:46:54.034Z,2.40
2023-01-25T07:49:23.820Z,2.40
2023-01-25T07:51:53.419Z,2.41
2023-01-25T07:54:22.163Z,2.42
2023-01-25T07:56:51.233Z,2.44
2023-01-25T07:59:19.527Z,2.42
2023-01-25T08:01:47.757Z,2.40
2023-01-25T08:04:16.344Z,2.41
2023-01-25T08:06:46.595Z,2.42
2023-01-25T08:09:19.786Z,2.42
2023-01-25T08:11:52.357Z,2.41
2023-01-25T08:14:21.306Z,2.40
2023-01-25T08:16:49.553Z,2.41
2023-01-25T08:19:20.102Z,2.41
2023-01-25T08:21:50.320Z,2.42
2023-01-25T08:24:20.835Z,2.41
2023-01-25T08:26:49.325Z,2.42
2023-01-25T08:29:18.017Z,2.41
2023-01-25T08:31:46.707Z,2.42
2023-01-25T08:34:16.116Z,2.43
2023-01-25T08:36:44.817Z,2.43
2023-01-25T08:39:14.665Z,2.44
2023-01-25T08:41:45.578Z,2.46
2023-01-25T08:44:13.824Z,2.48
2023-01-25T08:46:42.392Z,2.50
2023-01-25T08:49:11.412Z,2.53
2023-01-25T08:51:39.607Z,2.54
2023-01-25T08:54:11.197Z,2.55
2023-01-25T08:56:41.997Z,2.56
2023-01-25T08:59:13.155Z,2.57
2023-01-25T09:01:41.456Z,2.59
2023-01-25T09:04:09.979Z,2.61
2023-01-25T09:06:38.808Z,2.62
2023-01-25T09:09:08.505Z,2.63
2023-01-25T09:11:38.082Z,2.60
2023-01-25T09:14:08.100Z,2.61
2023-01-25T09:16:36.626Z,2.61
2023-01-25T09:19:06.886Z,2.61
2023-01-25T09:21:37.055Z,2.63
2023-01-25T09:24:07.532Z,2.63
2023-01-25T09:26:38.662Z,2.62
2023-01-25T09:29:09.103Z,2.64
2023-01-25T09:31:41.007Z,2.64
2023-01-25T09:34:32.769Z,2.64
2023-01-25T09:37:01.864Z,2.63
2023-01-25T09:39:30.124Z,2.65
2023-01-25T09:42:25.148Z,2.65
2023-01-25T09:45:25.182Z,2.66
2023-01-25T09:48:00.209Z,2.65
2023-01-25T09:50:42.915Z,2.64
2023-01-25T09:53:34.183Z,2.61
2023-01-25T09:56:10.382Z,2.65
2023-01-25T09:58:44.562Z,2.67
2023-01-25T10:01:38.249Z,2.67
2023-01-25T10:04:15.889Z,2.66
2023-01-25T10:07:02.482Z,2.66
2023-01-25T10:09:42.493Z,2.67
2023-01-25T10:12:20.220Z,2.69
2023-01-25T10:14:49.812Z,2.71
2023-01-25T10:17:31.452Z,2.72
2023-01-25T10:20:16.615Z,2.71
2023-01-25T10:22:51.652Z,2.71
2023-01-25T10:25:36.108Z,2.73
2023-01-25T10:28:24.837Z,2.75
2023-01-25T10:31:00.833Z,2.74
2023-01-25T10:33:36.302Z,2.74
2023-01-25T10:36:07.839Z,2.77
2023-01-25T10:38:42.217Z,2.78
2023-01-25T10:41:15.561Z,2.76
2023-01-25T10:43:43.784Z,2.75
2023-01-25T10:46:23.177Z,2.74
2023-01-25T10:48:52.866Z,2.77
2023-01-25T10:51:33.064Z,2.77
2023-01-25T10:54:04.465Z,2.78
2023-01-25T10:56:35.273Z,2.78
2023-01-25T10:59:20.365Z,2.77
2023-01-25T11:01:48.711Z,2.78
2023-01-25T11:04:33.734Z,2.78
2023-01-25T11:07:05.839Z,2.80
2023-01-25T11:09:38.005Z,2.81
2023-01-25T11:12:19.305Z,2.82
2023-01-25T11:14:50.689Z,2.84
2023-01-25T11:17:30.265Z,2.89
2023-01-25T11:20:19.300Z,2.90
2023-01-25T11:22:54.010Z,2.94
2023-01-25T11:25:32.239Z,2.96
2023-01-25T11:28:20.907Z,2.98
2023-01-25T11:30:50.298Z,3.01
2023-01-25T11:33:22.129Z,3.01
2023-01-25T11:36:17.906Z,3.04
2023-01-25T11:38:59.981Z,3.05
2023-01-25T11:41:41.458Z,3.05
2023-01-25T11:44:39.284Z,3.04
2023-01-25T11:47:24.485Z,3.03
2023-01-25T11:50:06.143Z,3.02
2023-01-25T11:52:57.526Z,3.02
2023-01-25T11:55:30.245Z,3.03
2023-01-25T11:58:20.629Z,3.02
2023-01-25T12:01:07.527Z,3.00
2023-01-25T12:04:26.219Z,3.00
2023-01-25T12:07:00.604Z,3.01
2023-01-25T12:09:52.390Z,3.02
2023-01-25T12:12:37.284Z,3.02
2023-01-25T12:15:34.300Z,3.00
2023-01-25T12:18:27.617Z,2.96
2023-01-25T12:21:08.435Z,2.95
2023-01-25T12:23:54.898Z,2.94
2023-01-25T12:26:29.779Z,2.94
2023-01-25T12:29:06.660Z,2.97
2023-01-25T12:31:45.004Z,2.98
2023-01-25T12:34:20.784Z,3.00
2023-01-25T12:36:51.216Z,3.01
2023-01-25T12:39:25.488Z,3.04
2023-01-25T12:42:02.450Z,3.03
2023-01-25T12:44:36.334Z,3.04
2023-01-25T12:47:14.745Z,3.03
2023-01-25T12:49:51.274Z,3.02
2023-01-25T12:52:28.249Z,3.04
2023-01-25T12:55:01.949Z,3.04
2023-01-25T12:57:43.828Z,3.06
2023-01-25T13:00:25.273Z,3.06
2023-01-25T13:03:22.575Z,3.06
2023-01-25T13:05:58.761Z,3.08
2023-01-25T13:08:43.326Z,3.07
2023-01-25T13:11:19.321Z,3.07
2023-01-25T13:13:49.596Z,3.07
2023-01-25T13:16:43.526Z,3.05
2023-01-25T13:19:23.619Z,3.03
2023-01-25T13:21:56.536Z,3.01
2023-01-25T13:24:27.674Z,2.99
2023-01-25T13:27:07.060Z,2.96
2023-01-25T13:30:00.225Z,2.92
2023-01-25T13:32:56.560Z,2.89
2023-01-25T13:35:45.506Z,2.90
2023-01-25T13:38:40.633Z,2.88
2023-01-25T13:41:19.064Z,2.90
2023-01-25T13:44:12.956Z,2.87
2023-01-25T13:46:42.987Z,2.87
2023-01-25T13:49:23.624Z,2.87
2023-01-25T13:51:52.490Z,2.88
2023-01-25T13:54:21.141Z,2.89
2023-01-25T13:56:49.804Z,2.88
2023-01-25T13:59:28.589Z,2.89
2023-01-25T14:02:00.219Z,2.90
2023-01-25T14:04:30.382Z,2.90
2023-01-25T14:07:02.891Z,2.89
2023-01-25T14:09:31.922Z,2.90
2023-01-25T14:12:03.518Z,2.91
2023-01-25T14:14:34.003Z,2.92
2023-01-25T14:17:11.301Z,2.92
2023-01-25T14:19:42.904Z,2.92
2023-01-25T14:22:27.032Z,2.91
2023-01-25T14:25:13.043Z,2.90
2023-01-25T14:27:47.754Z,2.90
2023-01-25T14:30:22.995Z,2.90
2023-01-25T14:32:55.022Z,2.90
2023-01-25T14:35:43.066Z,2.90
2023-01-25T14:38:29.253Z,2.89
2023-01-25T14:41:03.290Z,2.89
2023-01-25T14:43:32.455Z,2.89
2023-01-25T14:46:00.684Z,2.90
2023-01-25T14:48:40.465Z,2.86
2023-01-25T14:51:18.336Z,2.86
2023-01-25T14:53:50.900Z,2.84
2023-01-25T14:56:41.293Z,2.82
2023-01-25T14:59:30.395Z,2.81
2023-01-25T15:02:02.662Z,2.82
2023-01-25T15:04:35.326Z,2.82
2023-01-25T15:07:16.677Z,2.81
2023-01-25T15:10:03.124Z,2.79
2023-01-25T15:12:32.943Z,2.80
2023-01-25T15:15:02.719Z,2.79
2023-01-25T15:17:39.786Z,2.78
2023-01-25T15:20:29.862Z,2.79
2023-01-25T15:23:01.029Z,2.79
2023-01-25T15:25:29.649Z,2.78
2023-01-25T15:27:58.212Z,2.77
2023-01-25T15:30:26.780Z,2.77
2023-01-25T15:33:03.308Z,2.74
2023-01-25T15:35:34.622Z,2.75
2023-01-25T15:38:03.206Z,2.74
2023-01-25T15:40:31.418Z,2.74
2023-01-25T15:42:59.654Z,2.74
2023-01-25T15:45:28.317Z,2.74
2023-01-25T15:47:56.824Z,2.73
2023-01-25T15:50:25.405Z,2.73
2023-01-25T15:52:55.015Z,2.70
2023-01-25T15:55:24.865Z,2.70
2023-01-25T15:57:53.718Z,2.69
2023-01-25T16:00:23.545Z,2.68
2023-01-25T16:02:51.880Z,2.68
2023-01-25T16:05:20.440Z,2.68
2023-01-25T16:07:48.959Z,2.67
2023-01-25T16:10:25.190Z,2.67
2023-01-25T16:12:53.858Z,2.66
2023-01-25T16:15:22.361Z,2.67
2023-01-25T16:17:50.619Z,2.66
2023-01-25T16:20:21.896Z,2.63
2023-01-25T16:22:50.505Z,2.62
2023-01-25T16:25:18.750Z,2.62
2023-01-25T16:27:48.408Z,2.62
2023-01-25T16:30:23.811Z,2.62
2023-01-25T16:32:52.917Z,2.62
2023-01-25T16:35:22.245Z,2.62
2023-01-25T16:37:51.684Z,2.62
2023-01-25T16:40:25.134Z,2.61
2023-01-25T16:42:54.806Z,2.61
2023-01-25T16:45:24.095Z,2.60
2023-01-25T16:47:53.343Z,2.61
2023-01-25T16:50:24.057Z,2.59
2023-01-25T16:52:54.435Z,2.58
2023-01-25T16:55:22.969Z,2.57
2023-01-25T16:57:52.504Z,2.56
2023-01-25T17:00:23.391Z,2.56
2023-01-25T17:02:59.124Z,2.54
2023-01-25T17:05:33.481Z,2.51
2023-01-25T17:08:02.030Z,2.49
2023-01-25T17:10:34.631Z,2.50
2023-01-25T17:13:03.451Z,2.46
2023-01-25T17:15:35.058Z,2.45
2023-01-25T17:18:03.686Z,2.46
2023-01-25T17:20:32.195Z,2.47
2023-01-25T17:23:00.760Z,2.48
2023-01-25T17:25:32.486Z,2.49
2023-01-25T17:28:01.044Z,2.49
2023-01-25T17:30:29.583Z,2.47
2023-01-25T17:32:59.185Z,2.47
2023-01-25T17:35:27.424Z,2.46
2023-01-25T17:37:57.262Z,2.44
2023-01-25T17:40:25.770Z,2.43
2023-01-25T17:42:54.331Z,2.43
2023-01-25T17:45:22.994Z,2.42
2023-01-25T17:47:51.522Z,2.43
2023-01-25T17:50:21.119Z,2.44
2023-01-25T17:52:51.466Z,2.44
2023-01-25T17:55:19.988Z,2.43
2023-01-25T17:57:48.580Z,2.42
2023-01-25T18:00:18.258Z,2.41
2023-01-25T18:02:46.808Z,2.42
2023-01-25T18:05:15.692Z,2.40
2023-01-25T18:07:45.383Z,2.39
2023-01-25T18:10:14.209Z,2.38
2023-01-25T18:12:43.805Z,2.40
2023-01-25T18:15:13.541Z,2.40
2023-01-25T18:17:42.032Z,2.38
2023-01-25T18:20:12.070Z,2.38
2023-01-25T18:22:41.613Z,2.37
2023-01-25T18:25:32.163Z,2.35
2023-01-25T18:28:01.420Z,2.36
2023-01-25T18:30:37.358Z,2.35
2023-01-25T18:33:06.583Z,2.35
2023-01-25T18:35:35.015Z,2.36
2023-01-25T18:38:03.855Z,2.36
2023-01-25T18:40:33.405Z,2.35
2023-01-25T18:43:02.033Z,2.36
2023-01-25T18:45:30.671Z,2.35
2023-01-25T18:48:00.528Z,2.34
2023-01-25T18:50:31.113Z,2.35
2023-01-25T18:52:59.782Z,2.35
2023-01-25T18:55:28.415Z,2.36
2023-01-25T18:58:04.064Z,2.35
2023-01-25T19:00:32.882Z,2.36
2023-01-25T19:03:01.788Z,2.34
2023-01-25T19:05:30.458Z,2.35
2023-01-25T19:07:58.972Z,2.34
2023-01-25T19:10:27.562Z,2.35
2023-01-25T19:12:57.464Z,2.34
2023-01-25T19:15:25.961Z,2.33
2023-01-25T19:17:54.128Z,2.31
2023-01-25T19:20:22.381Z,2.29
2023-01-25T19:22:54.164Z,2.28
2023-01-25T19:25:22.824Z,2.28
2023-01-25T19:27:51.295Z,2.27
2023-01-25T19:30:20.915Z,2.28
2023-01-25T19:32:49.419Z,2.29
2023-01-25T19:35:18.058Z,2.28
2023-01-25T19:37:46.536Z,2.25
2023-01-25T19:40:15.212Z,2.25
2023-01-25T19:42:43.391Z,2.25
2023-01-25T19:45:12.821Z,2.26
2023-01-25T19:47:42.441Z,2.28
2023-01-25T19:50:12.574Z,2.25
2023-01-25T19:52:41.087Z,2.23
2023-01-25T19:55:10.286Z,2.22
2023-01-25T19:57:39.046Z,2.23
2023-01-25T20:00:09.134Z,2.25
2023-01-25T20:02:37.384Z,2.23
2023-01-25T20:05:08.558Z,2.23
2023-01-25T20:07:37.484Z,2.23
2023-01-25T20:10:07.094Z,2.23
2023-01-25T20:12:35.289Z,2.22
2023-01-25T20:15:04.261Z,2.22
2023-01-25T20:17:33.824Z,2.21
2023-01-25T20:20:02.530Z,2.21
2023-01-25T20:22:32.111Z,2.22
2023-01-25T20:25:01.104Z,2.23
2023-01-25T20:27:29.579Z,2.22
2023-01-25T20:29:58.082Z,2.23
2023-01-25T20:32:32.664Z,2.23
2023-01-25T20:35:03.535Z,2.22
2023-01-25T20:37:33.148Z,2.23
2023-01-25T20:40:01.615Z,2.23
2023-01-25T20:42:30.131Z,2.22
2023-01-25T20:44:58.616Z,2.20
2023-01-25T20:47:27.155Z,2.20
2023-01-25T20:49:55.675Z,2.20
2023-01-25T20:52:24.200Z,2.17
2023-01-25T20:54:54.600Z,2.17
2023-01-25T20:57:23.104Z,2.14
2023-01-25T20:59:51.557Z,2.12
2023-01-25T21:02:20.084Z,2.07
2023-01-25T21:04:48.859Z,2.07
2023-01-25T21:07:17.514Z,2.04
2023-01-25T21:09:45.755Z,2.04
2023-01-25T21:12:15.470Z,2.02
2023-01-25T21:14:43.951Z,2.00
2023-01-25T21:17:14.220Z,2.00
2023-01-25T21:19:42.765Z,2.01
2023-01-25T21:22:11.276Z,2.00
2023-01-25T21:24:39.453Z,1.96
2023-01-25T21:27:10.238Z,1.96
2023-01-25T21:29:39.835Z,1.97
2023-01-25T21:32:08.344Z,1.98
2023-01-25T21:34:36.569Z,1.97
2023-01-25T21:37:05.069Z,1.97
2023-01-25T21:39:33.697Z,1.97
2023-01-25T21:42:02.238Z,1.95
2023-01-25T21:44:47.785Z,1.93
2023-01-25T21:47:29.525Z,1.91
2023-01-25T21:50:16.584Z,1.87
2023-01-25T21:52:45.162Z,1.87
2023-01-25T21:55:13.653Z,1.84
2023-01-25T21:57:46.952Z,1.82
2023-01-25T22:00:17.150Z,1.80
2023-01-25T22:02:46.773Z,1.79
2023-01-25T22:05:15.156Z,1.80
2023-01-25T22:07:43.649Z,1.82
2023-01-25T22:10:12.808Z,1.83
2023-01-25T22:12:41.445Z,1.85
2023-01-25T22:15:10.484Z,1.86
2023-01-25T22:17:39.008Z,1.86
2023-01-25T22:20:11.141Z,1.86
2023-01-25T22:22:39.886Z,1.86
2023-01-25T22:25:09.050Z,1.86
2023-01-25T22:27:47.912Z,1.87
2023-01-25T22:30:16.506Z,1.88
2023-01-25T22:32:44.984Z,1.87
2023-01-25T22:35:14.705Z,1.88
2023-01-25T22:37:43.190Z,1.89
2023-01-25T22:40:13.511Z,1.88
2023-01-25T22:42:42.079Z,1.87
2023-01-25T22:45:11.103Z,1.84
2023-01-25T22:47:41.823Z,1.79
2023-01-25T22:50:12.387Z,1.78
2023-01-25T22:52:42.283Z,1.76
2023-01-25T22:55:11.011Z,1.76
2023-01-25T22:57:39.542Z,1.75
2023-01-25T23:00:10.485Z,1.75
2023-01-25T23:02:39.401Z,1.74
2023-01-25T23:05:09.076Z,1.72
2023-01-25T23:07:37.633Z,1.73
2023-01-25T23:10:09.080Z,1.72
2023-01-25T23:12:37.780Z,1.72
2023-01-25T23:15:15.439Z,1.72
2023-01-25T23:18:13.187Z,1.74
2023-01-25T23:20:41.731Z,1.74
2023-01-25T23:23:11.258Z,1.76
2023-01-25T23:25:40.879Z,1.76
2023-01-25T23:28:09.523Z,1.74
2023-01-25T23:30:38.115Z,1.73
2023-01-25T23:33:06.616Z,1.73
2023-01-25T23:35:35.225Z,1.74
2023-01-25T23:38:03.721Z,1.75
2023-01-25T23:40:32.238Z,1.74
2023-01-25T23:43:01.931Z,1.74
2023-01-25T23:45:30.525Z,1.73
2023-01-25T23:47:59.004Z,1.70
2023-01-25T23:50:27.540Z,1.67
2023-01-25T23:52:56.016Z,1.64
2023-01-25T23:55:24.604Z,1.62
2023-01-25T23:57:54.592Z,1.60
